Time;durP1;ratioP1;P1;durP2;ratioP2;P2;SDS_P1;SDS_P2;PMS_P1;PMS_P2;Temp;Humidity;BMP_temperature;BMP_pressure;BME280_temperature;BME280_humidity;BME280_pressure;Samples;Min_cycle;Max_cycle;Signal;HPM_P1;HPM_P2
2023/04/03 00:01:37;;;;;;;3.33;1.30;;;0.30;1.00;;;;;;4882987;29;20198;-90
2023/04/03 00:04:05;;;;;;;6.90;1.60;;;0.20;1.00;;;;;;4883314;29;20221;-91
2023/04/03 00:06:31;;;;;;;3.07;1.30;;;0.20;1.00;;;;;;4883148;29;20747;-91
2023/04/03 00:09:00;;;;;;;6.30;1.77;;;0.10;1.00;;;;;;4882811;29;20213;-91
2023/04/03 00:11:26;;;;;;;4.20;1.60;;;0.10;1.00;;;;;;4883075;29;20210;-90
2023/04/03 00:13:53;;;;;;;2.47;1.13;;;0.10;1.00;;;;;;4883087;29;20199;-91
2023/04/03 00:16:20;;;;;;;5.13;1.33;;;0.00;1.00;;;;;;4882363;29;20213;-91
2023/04/03 00:18:47;;;;;;;3.90;1.37;;;0.10;1.00;;;;;;4882975;29;20207;-90
2023/04/03 00:21:15;;;;;;;5.97;1.83;;;0.00;1.00;;;;;;4896662;29;20206;-91
2023/04/03 00:23:42;;;;;;;4.80;1.40;;;0.00;1.00;;;;;;4899518;29;20225;-90
2023/04/03 00:26:10;;;;;;;6.00;2.00;;;0.00;1.00;;;;;;4864108;29;20206;-91
2023/04/03 00:28:37;;;;;;;2.47;0.90;;;0.00;1.00;;;;;;4881563;29;20588;-90
2023/04/03 00:31:04;;;;;;;5.40;1.43;;;0.00;1.00;;;;;;4901279;29;20213;-91
2023/04/03 00:33:31;;;;;;;3.60;2.00;;;0.00;1.00;;;;;;4884581;29;20207;-90
2023/04/03 00:35:58;;;;;;;5.27;1.77;;;0.00;1.00;;;;;;4882747;29;20554;-90
2023/04/03 00:38:24;;;;;;;4.43;1.60;;;0.00;1.00;;;;;;4885846;29;20236;-90
2023/04/03 00:40:51;;;;;;;3.50;1.30;;;0.00;1.00;;;;;;4884726;29;20198;-90
2023/04/03 00:43:22;;;;;;;4.50;1.30;;;0.00;1.00;;;;;;4881519;29;20201;-90
2023/04/03 00:45:50;;;;;;;7.43;1.53;;;0.00;1.00;;;;;;4898267;29;20705;-90
2023/04/03 00:48:20;;;;;;;5.33;1.27;;;-0.10;1.00;;;;;;4886414;29;20203;-90
2023/04/03 00:50:48;;;;;;;5.47;1.43;;;-0.10;1.00;;;;;;4887815;29;20213;-90
2023/04/03 00:53:19;;;;;;;4.67;1.40;;;-0.10;1.00;;;;;;4881508;29;20679;-90
2023/04/03 00:55:47;;;;;;;3.93;1.40;;;-0.10;6.90;;;;;;4884396;29;20198;-90
2023/04/03 00:58:16;;;;;;;6.93;1.50;;;-0.10;1.40;;;;;;4900543;29;20202;-90
2023/04/03 01:00:51;;;;;;;3.80;1.57;;;-0.10;1.00;;;;;;4882910;29;20682;-90
2023/04/03 01:03:18;;;;;;;6.37;1.60;;;-0.10;34.30;;;;;;4881725;29;20194;-91
2023/04/03 01:05:45;;;;;;;4.37;1.43;;;-0.10;17.80;;;;;;4881892;29;20205;-90
2023/04/03 01:08:12;;;;;;;5.30;1.63;;;-0.20;58.40;;;;;;4881887;29;20194;-90
2023/04/03 01:10:38;;;;;;;5.93;1.63;;;-0.20;99.90;;;;;;4882118;29;20205;-91
2023/04/03 01:13:20;;;;;;;4.40;1.57;;;-0.20;93.60;;;;;;4888466;29;20205;-91
2023/04/03 01:15:49;;;;;;;3.80;1.27;;;-0.20;99.90;;;;;;4881942;29;20210;-90
2023/04/03 01:18:16;;;;;;;6.63;1.50;;;-0.20;99.90;;;;;;4881464;29;20550;-90
2023/04/03 01:21:21;;;;;;;7.37;1.77;;;-0.20;99.90;;;;;;4883786;29;20203;-91
2023/04/03 01:23:58;;;;;;;6.27;1.60;;;-0.30;99.90;;;;;;4869595;29;20222;-90
2023/04/03 01:26:26;;;;;;;5.80;1.60;;;-0.30;99.90;;;;;;4881337;29;20675;-89
2023/04/03 01:28:54;;;;;;;4.83;1.43;;;-0.30;99.90;;;;;;4881019;29;20194;-91
2023/04/03 01:31:25;;;;;;;3.47;1.37;;;-0.30;99.90;;;;;;4881160;29;20213;-90
2023/04/03 01:33:54;;;;;;;6.63;1.70;;;-0.30;99.90;;;;;;4886236;29;20201;-90
2023/04/03 01:36:22;;;;;;;3.93;1.30;;;-0.30;99.90;;;;;;4885739;29;20210;-90
2023/04/03 01:38:50;;;;;;;6.33;1.87;;;-0.20;99.90;;;;;;4880762;29;20653;-89
2023/04/03 01:41:17;;;;;;;6.57;1.63;;;-0.20;99.90;;;;;;4887072;29;20285;-90
2023/04/03 01:43:44;;;;;;;6.20;3.53;;;-0.20;99.90;;;;;;4897554;29;20226;-89
2023/04/03 01:46:11;;;;;;;4.03;1.57;;;-0.30;99.90;;;;;;4898253;29;20212;-90
2023/04/03 01:48:37;;;;;;;2.90;1.40;;;-0.30;99.90;;;;;;4880640;29;20210;-90
2023/04/03 01:51:06;;;;;;;6.27;1.47;;;-0.20;99.90;;;;;;4880802;29;20201;-90
2023/04/03 01:53:33;;;;;;;6.90;1.60;;;-0.30;99.90;;;;;;4883360;29;20213;-90
2023/04/03 01:55:59;;;;;;;7.10;1.53;;;-0.30;99.90;;;;;;4884270;29;20208;-89
2023/04/03 01:58:26;;;;;;;7.73;1.53;;;-0.40;99.90;;;;;;4880698;29;20211;-90
2023/04/03 02:00:53;;;;;;;2.43;1.37;;;-0.30;99.90;;;;;;4862106;29;20199;-90
2023/04/03 02:03:20;;;;;;;5.37;1.67;;;-0.30;99.90;;;;;;4891538;29;20213;-91
2023/04/03 02:05:47;;;;;;;4.77;1.70;;;-0.40;99.90;;;;;;4888916;29;20214;-90
2023/04/03 02:08:17;;;;;;;4.73;1.27;;;-0.40;99.90;;;;;;4880827;29;20190;-90
2023/04/03 02:10:44;;;;;;;3.63;1.60;;;-0.40;99.90;;;;;;4882432;29;20381;-90
2023/04/03 02:13:11;;;;;;;4.33;1.87;;;-0.40;99.90;;;;;;4885117;29;20198;-90
2023/04/03 02:15:39;;;;;;;6.00;1.40;;;-0.40;99.90;;;;;;4887726;29;20678;-90
2023/04/03 02:18:06;;;;;;;4.20;1.63;;;-0.40;99.90;;;;;;4891931;29;20216;-90
2023/04/03 02:20:33;;;;;;;4.23;1.20;;;-0.40;99.90;;;;;;4888782;29;20211;-90
2023/04/03 02:22:59;;;;;;;4.33;1.30;;;-0.40;99.90;;;;;;4880309;29;20198;-90
2023/04/03 02:25:28;;;;;;;5.03;1.77;;;-0.40;99.90;;;;;;4879710;29;20226;-90
2023/04/03 02:27:55;;;;;;;5.87;1.90;;;-0.50;99.90;;;;;;4861895;29;20660;-90
2023/04/03 02:30:21;;;;;;;4.67;1.30;;;-0.40;99.90;;;;;;4891113;29;20190;-91
2023/04/03 02:32:48;;;;;;;5.77;1.20;;;-0.40;99.90;;;;;;4899202;29;20300;-90
2023/04/03 02:35:15;;;;;;;3.83;1.20;;;-0.40;99.90;;;;;;4899479;29;20194;-91
2023/04/03 02:37:42;;;;;;;5.43;1.60;;;-0.40;99.90;;;;;;4899269;29;20365;-91
2023/04/03 02:40:11;;;;;;;6.70;1.73;;;-0.40;99.90;;;;;;4898574;29;20208;-91
2023/04/03 02:42:39;;;;;;;7.57;2.23;;;-0.40;99.90;;;;;;4881661;29;20214;-90
2023/04/03 02:45:07;;;;;;;5.23;1.50;;;-0.50;99.90;;;;;;4879852;29;20702;-92
2023/04/03 02:47:34;;;;;;;2.73;1.00;;;-0.50;99.90;;;;;;4880236;29;20207;-91
2023/04/03 02:50:00;;;;;;;6.10;1.53;;;-0.50;99.90;;;;;;4880423;29;20258;-91
2023/04/03 02:52:27;;;;;;;2.60;0.93;;;-0.50;99.90;;;;;;4880476;29;20198;-91
2023/04/03 02:54:54;;;;;;;6.40;1.70;;;-0.50;99.90;;;;;;4896356;29;20719;-90
2023/04/03 02:57:21;;;;;;;4.47;1.27;;;-0.50;1.00;;;;;;4880088;29;20668;-90
2023/04/03 02:59:49;;;;;;;4.20;1.40;;;-0.50;99.90;;;;;;4889555;29;20211;-90
2023/04/03 03:02:16;;;;;;;6.20;1.60;;;-0.60;1.00;;;;;;4891883;29;20577;-91
2023/04/03 03:04:43;;;;;;;4.90;1.60;;;-0.60;1.00;;;;;;4880240;29;20590;-90
2023/04/03 03:07:10;;;;;;;3.07;1.47;;;-0.60;1.00;;;;;;4880542;29;20612;-91
2023/04/03 03:09:37;;;;;;;3.57;1.67;;;-0.60;1.00;;;;;;4885334;29;20686;-91
2023/04/03 03:12:04;;;;;;;6.23;1.70;;;-0.60;1.00;;;;;;4880192;29;20199;-91
2023/04/03 03:14:31;;;;;;;3.10;1.33;;;-0.60;1.00;;;;;;4880239;29;20297;-92
2023/04/03 03:16:59;;;;;;;5.87;1.30;;;-0.60;1.00;;;;;;4883974;29;20208;-91
2023/04/03 03:19:26;;;;;;;3.87;1.20;;;-0.60;1.00;;;;;;4898401;29;20209;-91
2023/04/03 03:21:53;;;;;;;4.27;1.57;;;-0.60;1.00;;;;;;4898912;29;20202;-91
2023/04/03 03:24:19;;;;;;;6.33;1.30;;;-0.70;1.00;;;;;;4882946;29;20249;-90
2023/04/03 03:26:46;;;;;;;4.53;1.47;;;-0.60;1.00;;;;;;4887105;29;20217;-90
2023/04/03 03:29:13;;;;;;;3.40;1.57;;;-0.60;1.00;;;;;;4882142;29;20199;-91
2023/04/03 03:31:40;;;;;;;2.83;1.33;;;-0.70;1.00;;;;;;4880619;29;20195;-92
2023/04/03 03:34:08;;;;;;;5.87;2.03;;;-0.70;1.00;;;;;;4878809;29;20214;-91
2023/04/03 03:36:35;;;;;;;2.93;1.20;;;-0.70;1.00;;;;;;4887515;29;20690;-91
2023/04/03 03:39:02;;;;;;;2.47;1.10;;;-0.70;1.00;;;;;;4882601;29;20219;-91
2023/04/03 03:41:28;;;;;;;3.07;1.57;;;-0.70;1.00;;;;;;4879577;29;20214;-90
2023/04/03 03:43:55;;;;;;;7.60;1.80;;;-0.70;1.00;;;;;;4882107;29;20206;-92
2023/04/03 03:46:22;;;;;;;6.67;2.10;;;-0.70;99.90;;;;;;4881831;29;20226;-90
2023/04/03 03:48:49;;;;;;;3.10;1.20;;;-0.70;99.90;;;;;;4880006;29;20203;-91
2023/04/03 03:51:17;;;;;;;3.73;1.20;;;-0.80;99.90;;;;;;4894862;29;20293;-92
2023/04/03 03:53:44;;;;;;;3.30;1.30;;;-0.80;99.90;;;;;;4903840;29;20292;-90
2023/04/03 03:56:11;;;;;;;5.03;1.90;;;-0.80;99.90;;;;;;4889577;29;20276;-91
2023/04/03 03:58:38;;;;;;;2.37;1.27;;;-0.80;99.90;;;;;;4902098;29;20277;-90
2023/04/03 04:01:06;;;;;;;8.73;3.13;;;-0.80;99.90;;;;;;4884967;29;20656;-90
2023/04/03 04:03:33;;;;;;;10.80;4.93;;;-0.80;99.90;;;;;;4892039;29;20218;-91
2023/04/03 04:06:00;;;;;;;7.37;2.13;;;-0.80;99.90;;;;;;4885089;29;20282;-90
2023/04/03 04:08:28;;;;;;;6.33;3.00;;;-0.80;99.90;;;;;;4892989;29;20294;-91
2023/04/03 04:10:55;;;;;;;4.90;1.50;;;-0.80;99.90;;;;;;4893299;29;20199;-91
2023/04/03 04:13:22;;;;;;;3.30;1.40;;;-0.80;99.90;;;;;;4901581;29;20204;-92
2023/04/03 04:15:49;;;;;;;5.83;2.93;;;-0.90;99.90;;;;;;4884976;29;20218;-91
2023/04/03 04:18:16;;;;;;;4.00;1.53;;;-0.90;99.90;;;;;;4882865;29;20230;-91
2023/04/03 04:20:42;;;;;;;5.40;1.70;;;-0.90;99.90;;;;;;4882739;29;20206;-91
2023/04/03 04:23:09;;;;;;;3.90;1.80;;;-0.90;99.90;;;;;;4872590;29;20209;-91
2023/04/03 04:25:37;;;;;;;4.93;1.90;;;-0.90;99.90;;;;;;4901498;29;20244;-90
2023/04/03 04:28:04;;;;;;;3.83;1.40;;;-0.90;99.90;;;;;;4881055;29;20195;-92
2023/04/03 04:30:31;;;;;;;5.37;2.00;;;-0.90;99.90;;;;;;4882816;29;20206;-91
2023/04/03 04:32:58;;;;;;;8.60;1.70;;;-0.90;99.90;;;;;;4882399;29;20656;-91
2023/04/03 04:35:25;;;;;;;3.20;1.47;;;-0.90;99.90;;;;;;4882713;29;20207;-90
2023/04/03 04:37:52;;;;;;;4.33;1.50;;;-0.90;99.90;;;;;;4882332;29;20226;-91
2023/04/03 04:40:18;;;;;;;4.33;1.70;;;-0.90;99.90;;;;;;4882730;29;20206;-91
2023/04/03 04:42:47;;;;;;;6.73;2.80;;;-0.80;99.90;;;;;;4884171;29;20206;-90
2023/04/03 04:45:14;;;;;;;6.50;2.57;;;-0.80;99.90;;;;;;4882535;29;20223;-93
2023/04/03 04:47:41;;;;;;;3.23;1.50;;;-0.80;99.90;;;;;;4882006;29;20194;-91
2023/04/03 04:50:09;;;;;;;6.33;1.80;;;-0.80;99.90;;;;;;4887805;29;20205;-93
2023/04/03 04:52:36;;;;;;;6.43;1.80;;;-0.80;99.90;;;;;;4883506;29;20199;-92
2023/04/03 04:55:03;;;;;;;6.63;1.50;;;-0.80;99.90;;;;;;4880495;29;20205;-90
2023/04/03 04:57:30;;;;;;;5.97;1.60;;;-0.80;99.90;;;;;;4882975;29;20206;-91
2023/04/03 04:59:58;;;;;;;6.30;2.17;;;-0.80;99.90;;;;;;4881993;29;20205;-92
2023/04/03 05:02:25;;;;;;;5.10;1.47;;;-0.70;99.90;;;;;;4881880;29;20205;-92
2023/04/03 05:04:52;;;;;;;5.43;2.33;;;-0.70;99.90;;;;;;4881999;29;20226;-92
2023/04/03 05:07:19;;;;;;;3.83;1.63;;;-0.70;99.90;;;;;;4882360;29;20199;-92
2023/04/03 05:09:46;;;;;;;7.57;1.33;;;-0.70;99.90;;;;;;4882262;29;20199;-91
2023/04/03 10:31:26;;;;;;;5.30;1.17;;;7.60;99.90;;;;;;5656674;23;20321;-92
2023/04/03 10:34:03;;;;;;;3.20;1.20;;;7.40;99.90;;;;;;4878262;29;20202;-91
2023/04/03 10:36:38;;;;;;;1.97;0.90;;;7.20;99.90;;;;;;4878222;29;20658;-92
2023/04/03 10:39:16;;;;;;;1.33;0.93;;;6.90;99.90;;;;;;4880272;29;20599;-91
2023/04/03 10:42:01;;;;;;;2.50;1.03;;;6.60;99.90;;;;;;4879533;29;20201;-91
2023/04/03 10:44:38;;;;;;;1.80;0.70;;;6.60;99.90;;;;;;4879849;29;20278;-90
2023/04/03 10:47:21;;;;;;;2.17;1.00;;;6.90;99.90;;;;;;4879270;29;20303;-88
2023/04/03 10:49:57;;;;;;;2.67;0.77;;;7.00;99.90;;;;;;4878317;29;20202;-90
2023/04/03 10:52:31;;;;;;;1.93;0.83;;;6.90;99.90;;;;;;4880307;29;20194;-92
2023/04/03 10:55:08;;;;;;;1.30;0.90;;;6.60;99.90;;;;;;4880239;29;20188;-89
2023/04/03 10:57:35;;;;;;;1.37;0.80;;;6.30;99.90;;;;;;4880181;29;20258;-91
2023/04/03 11:00:08;;;;;;;2.17;1.13;;;6.40;99.90;;;;;;4864551;29;20633;-91
2023/04/03 11:02:40;;;;;;;2.00;1.00;;;6.50;99.90;;;;;;4879940;29;20202;-91
2023/04/03 11:05:16;;;;;;;2.67;0.90;;;6.70;99.90;;;;;;4879871;29;20258;-91
2023/04/03 11:07:47;;;;;;;1.60;0.90;;;6.90;99.90;;;;;;4878857;29;20231;-92
2023/04/03 11:10:23;;;;;;;1.60;1.00;;;7.20;99.90;;;;;;4862314;29;20674;-91
2023/04/03 11:12:55;;;;;;;1.63;1.00;;;7.60;99.90;;;;;;4863194;29;20194;-91
2023/04/03 11:15:24;;;;;;;2.43;0.83;;;8.00;99.90;;;;;;4876366;29;20199;-91
2023/04/03 11:17:56;;;;;;;1.90;0.90;;;8.30;99.90;;;;;;4881808;29;20626;-92
2023/04/03 11:20:27;;;;;;;0.80;0.67;;;8.60;99.90;;;;;;4880329;29;20229;-92
2023/04/03 11:23:01;;;;;;;1.33;0.90;;;9.10;99.90;;;;;;4880431;29;20251;-91
2023/04/03 11:25:32;;;;;;;2.20;0.97;;;9.40;99.90;;;;;;4880067;29;20214;-91
2023/04/03 11:28:01;;;;;;;2.63;1.23;;;9.60;99.90;;;;;;4879962;29;20717;-90
2023/04/03 11:30:34;;;;;;;2.60;1.40;;;9.90;99.90;;;;;;4880135;29;20209;-92
2023/04/03 11:33:17;;;;;;;3.10;1.27;;;9.90;99.90;;;;;;4906356;29;20212;-92
2023/04/03 11:35:46;;;;;;;2.30;1.00;;;9.90;99.90;;;;;;4907597;29;20207;-92
2023/04/03 11:38:22;;;;;;;3.50;1.10;;;9.50;99.90;;;;;;4899922;29;20236;-93
2023/04/03 11:40:51;;;;;;;1.60;0.70;;;9.00;99.90;;;;;;4900177;29;20219;-92
2023/04/03 11:43:26;;;;;;;2.93;0.97;;;8.50;99.90;;;;;;4915796;29;20245;-92
2023/04/03 11:46:00;;;;;;;3.63;1.10;;;8.40;99.90;;;;;;4880219;29;20311;-92
2023/04/03 11:48:51;;;;;;;2.73;0.90;;;8.80;99.90;;;;;;4894981;29;20200;-92
2023/04/03 11:51:51;;;;;;;1.63;0.70;;;9.30;99.90;;;;;;4898467;29;20265;-92
2023/04/03 11:54:46;;;;;;;2.00;0.90;;;9.50;99.90;;;;;;4899084;29;20202;-92
2023/04/03 11:57:45;;;;;;;1.23;0.90;;;9.30;99.90;;;;;;4912711;29;20235;-92
2023/04/03 12:00:49;;;;;;;2.43;1.10;;;9.00;99.90;;;;;;4903068;29;20233;-92
2023/04/03 12:03:34;;;;;;;4.67;1.10;;;8.50;99.90;;;;;;4898402;29;20202;-91
2023/04/03 12:06:37;;;;;;;3.13;0.90;;;8.10;99.90;;;;;;4898405;29;20214;-92
2023/04/03 12:09:25;;;;;;;1.80;0.90;;;7.90;99.90;;;;;;4835081;29;20627;-91
2023/04/03 12:11:53;;;;;;;2.03;1.20;;;7.70;99.90;;;;;;4840524;29;20284;-91
2023/04/03 12:14:25;;;;;;;3.90;0.80;;;8.00;99.90;;;;;;4844087;29;20200;-92
2023/04/03 12:16:57;;;;;;;3.20;1.13;;;8.40;99.90;;;;;;4843760;29;21346;-91
2023/04/03 12:19:36;;;;;;;3.03;1.27;;;8.60;99.90;;;;;;4844376;29;20231;-92
2023/04/03 12:22:16;;;;;;;1.87;0.90;;;8.60;99.90;;;;;;4839352;29;20204;-91
2023/04/03 12:24:48;;;;;;;1.87;0.87;;;8.70;99.90;;;;;;4839188;29;20272;-90
2023/04/03 12:27:35;;;;;;;2.47;0.80;;;8.90;99.90;;;;;;4839839;29;20223;-91
2023/04/03 12:30:17;;;;;;;2.27;1.20;;;9.30;99.90;;;;;;4845315;29;20750;-90
2023/04/03 12:33:03;;;;;;;2.10;1.17;;;9.40;99.90;;;;;;4844055;29;20239;-90
2023/04/03 12:35:35;;;;;;;3.07;1.30;;;9.40;99.90;;;;;;4836558;29;20224;-91
2023/04/03 12:38:56;;;;;;;6.03;2.23;;;9.40;99.90;;;;;;4843917;29;20204;-91
2023/04/03 12:41:32;;;;;;;4.57;1.60;;;9.30;99.90;;;;;;4843561;29;20206;-92
2023/04/03 12:44:15;;;;;;;2.80;1.00;;;9.40;99.90;;;;;;4843589;29;20307;-91
2023/04/03 12:46:46;;;;;;;1.80;0.80;;;9.50;99.90;;;;;;4887167;29;20732;-91
2023/04/03 12:49:31;;;;;;;1.57;0.80;;;9.50;99.90;;;;;;4901244;29;20242;-91
2023/04/03 12:51:59;;;;;;;4.47;1.10;;;9.40;99.90;;;;;;4896940;29;20196;-91
2023/04/03 12:54:31;;;;;;;2.27;1.00;;;9.20;99.90;;;;;;4901468;29;20218;-92
2023/04/03 12:57:12;;;;;;;1.87;1.13;;;8.90;99.90;;;;;;4900909;29;20341;-90
2023/04/03 12:59:40;;;;;;;2.10;1.23;;;8.80;99.90;;;;;;4897263;29;20239;-90
2023/04/03 13:02:21;;;;;;;3.60;1.50;;;8.90;99.90;;;;;;4901157;29;20217;-91
2023/04/03 13:04:49;;;;;;;3.27;1.60;;;9.10;99.90;;;;;;4899914;29;20239;-91
2023/04/03 13:07:22;;;;;;;1.83;1.00;;;9.50;99.90;;;;;;4882205;29;20697;-91
2023/04/03 13:09:58;;;;;;;2.57;0.73;;;9.90;99.90;;;;;;4900389;29;20654;-92
2023/04/03 13:12:27;;;;;;;2.13;0.70;;;9.90;99.90;;;;;;4886414;29;20251;-91
2023/04/03 13:14:57;;;;;;;4.20;1.77;;;9.70;99.90;;;;;;4882114;29;20213;-91
2023/04/03 13:17:25;;;;;;;2.83;1.40;;;9.50;99.90;;;;;;4889593;29;20193;-91
2023/04/03 13:19:52;;;;;;;2.20;1.37;;;9.50;99.90;;;;;;4900989;29;20284;-91
2023/04/03 13:22:38;;;;;;;4.70;1.57;;;9.40;99.90;;;;;;4900807;29;20208;-92
2023/04/03 13:25:10;;;;;;;3.17;1.30;;;9.40;99.90;;;;;;4900004;29;20231;-92
2023/04/03 13:27:42;;;;;;;3.57;1.50;;;9.40;99.90;;;;;;4900549;29;20224;-91
2023/04/03 13:30:30;;;;;;;3.83;1.70;;;9.30;99.90;;;;;;4898287;29;20214;-91
2023/04/03 13:33:01;;;;;;;1.03;0.70;;;9.30;99.90;;;;;;4900574;29;20228;-91
2023/04/03 13:35:32;;;;;;;3.37;1.00;;;9.30;99.90;;;;;;4900616;29;20665;-91
2023/04/03 13:38:02;;;;;;;1.60;0.80;;;9.10;99.90;;;;;;4881666;29;20329;-90
2023/04/03 13:40:29;;;;;;;1.57;0.80;;;9.00;99.90;;;;;;4894811;29;20609;-90
2023/04/03 13:43:18;;;;;;;1.90;1.00;;;8.80;99.90;;;;;;4900178;29;20200;-91
2023/04/03 13:45:57;;;;;;;1.93;1.13;;;8.80;99.90;;;;;;4899780;29;20207;-90
2023/04/03 13:48:25;;;;;;;3.23;1.17;;;8.80;99.90;;;;;;4900157;29;20210;-91
2023/04/03 13:51:00;;;;;;;1.73;0.90;;;8.80;99.90;;;;;;4900328;29;20616;-91
2023/04/03 13:53:28;;;;;;;1.27;0.90;;;8.80;99.90;;;;;;4907101;29;20189;-90
2023/04/03 13:56:15;;;;;;;3.23;0.80;;;8.80;99.90;;;;;;4917482;29;20228;-90
2023/04/03 13:58:59;;;;;;;4.03;2.00;;;8.80;99.90;;;;;;4901574;29;20206;-91
2023/04/03 14:01:33;;;;;;;4.87;2.20;;;8.70;99.90;;;;;;4919014;29;20216;-90
2023/04/03 14:04:02;;;;;;;2.13;0.90;;;8.60;99.90;;;;;;4881450;29;20644;-91
2023/04/03 14:06:29;;;;;;;3.43;1.20;;;8.60;99.90;;;;;;4904403;29;20621;-90
2023/04/03 14:08:56;;;;;;;1.47;0.90;;;8.60;99.90;;;;;;4907196;29;20238;-90
2023/04/03 14:11:27;;;;;;;2.07;1.10;;;8.50;99.90;;;;;;4906455;29;20250;-90
2023/04/03 14:14:11;;;;;;;1.13;0.60;;;8.60;99.90;;;;;;4903099;29;20258;-90
2023/04/03 14:16:41;;;;;;;1.27;0.60;;;8.50;99.90;;;;;;4918700;29;20190;-90
2023/04/03 14:19:15;;;;;;;3.03;1.00;;;8.50;99.90;;;;;;4899902;29;20707;-90
2023/04/03 14:21:42;;;;;;;3.30;0.80;;;8.40;99.90;;;;;;4900913;29;20203;-90
2023/04/03 14:24:11;;;;;;;1.07;0.70;;;8.20;99.90;;;;;;4901040;29;20203;-91
2023/04/03 14:26:38;;;;;;;2.40;0.87;;;8.10;99.90;;;;;;4899329;29;20336;-91
2023/04/03 14:29:06;;;;;;;2.33;1.13;;;8.00;99.90;;;;;;4899654;29;20215;-91
2023/04/03 14:31:34;;;;;;;1.67;0.90;;;8.00;99.90;;;;;;4899241;29;20240;-90
2023/04/03 14:34:01;;;;;;;1.87;0.87;;;7.90;99.90;;;;;;4899229;29;20230;-91
2023/04/03 14:36:31;;;;;;;2.97;1.00;;;7.90;99.90;;;;;;4898446;29;20203;-90
2023/04/03 14:38:59;;;;;;;2.50;1.10;;;7.90;99.90;;;;;;4899461;29;20203;-90
2023/04/03 14:41:27;;;;;;;3.23;1.00;;;7.90;99.90;;;;;;4899232;29;20199;-90
2023/04/03 14:43:54;;;;;;;2.67;1.03;;;7.90;99.90;;;;;;4899632;29;20209;-90
2023/04/03 14:46:28;;;;;;;2.63;1.17;;;7.90;99.90;;;;;;4898579;29;20214;-90
2023/04/03 14:48:55;;;;;;;2.43;1.10;;;7.90;99.90;;;;;;4899218;29;20246;-89
2023/04/03 14:51:22;;;;;;;1.90;0.87;;;7.90;99.90;;;;;;4898245;29;20235;-90
2023/04/03 14:53:50;;;;;;;3.33;1.37;;;7.80;99.90;;;;;;4898463;29;20210;-90
2023/04/03 14:56:21;;;;;;;1.80;0.90;;;7.70;99.90;;;;;;4899060;29;20674;-90
2023/04/03 14:58:50;;;;;;;2.10;0.83;;;7.50;99.90;;;;;;4899614;29;20186;-90
2023/04/03 15:01:18;;;;;;;1.60;0.87;;;7.40;99.90;;;;;;4899282;29;20213;-90
2023/04/03 15:03:46;;;;;;;1.67;0.83;;;7.40;99.90;;;;;;4899123;29;20257;-90
2023/04/03 15:06:15;;;;;;;1.00;0.80;;;7.60;99.90;;;;;;4898667;29;20250;-91
2023/04/03 15:08:43;;;;;;;2.83;0.77;;;7.70;99.90;;;;;;4899028;29;20211;-90
2023/04/03 15:11:10;;;;;;;1.83;0.93;;;7.60;99.90;;;;;;4898902;29;20194;-89
2023/04/03 15:13:37;;;;;;;1.77;0.80;;;7.50;99.90;;;;;;4898685;29;20202;-90
2023/04/03 15:16:05;;;;;;;2.20;0.73;;;7.50;99.90;;;;;;4898715;29;20659;-89
2023/04/03 15:18:38;;;;;;;3.33;1.50;;;7.50;99.90;;;;;;4914583;29;20206;-90
2023/04/03 15:21:07;;;;;;;3.37;1.73;;;7.40;99.90;;;;;;4900737;29;20621;-90
2023/04/03 15:23:34;;;;;;;3.50;1.03;;;7.40;99.90;;;;;;4898531;29;20257;-89
2023/04/03 15:26:01;;;;;;;1.87;0.70;;;7.40;99.90;;;;;;4902218;29;20253;-89
2023/04/03 15:28:31;;;;;;;1.77;1.10;;;7.20;99.90;;;;;;4898087;29;20220;-88
2023/04/03 15:30:58;;;;;;;2.93;0.97;;;7.20;99.90;;;;;;4894185;29;20232;-89
2023/04/03 15:33:26;;;;;;;2.50;0.90;;;7.10;99.90;;;;;;4898219;29;20201;-89
2023/04/03 15:35:53;;;;;;;1.60;0.97;;;7.20;99.90;;;;;;4895273;29;20254;-88
2023/04/03 15:38:21;;;;;;;1.73;1.00;;;7.30;99.90;;;;;;4895837;29;20214;-90
2023/04/03 15:40:48;;;;;;;1.77;0.90;;;7.40;99.90;;;;;;4895637;29;20202;-91
2023/04/03 15:43:16;;;;;;;1.20;0.73;;;7.40;99.90;;;;;;4897008;29;20266;-90
2023/04/03 15:45:44;;;;;;;1.53;0.90;;;7.40;99.90;;;;;;4888406;29;20234;-90
2023/04/03 15:48:12;;;;;;;2.80;1.00;;;7.40;99.90;;;;;;4897598;29;20282;-90
2023/04/03 15:50:40;;;;;;;1.07;0.80;;;7.40;99.90;;;;;;4900837;29;20198;-90
2023/04/03 15:53:07;;;;;;;1.20;0.90;;;7.40;99.90;;;;;;4898476;29;20690;-90
2023/04/03 15:55:39;;;;;;;2.87;1.13;;;7.30;99.90;;;;;;4899453;29;20202;-90
2023/04/03 15:58:06;;;;;;;3.00;1.33;;;7.20;99.90;;;;;;4890102;29;20201;-90
2023/04/03 16:00:33;;;;;;;1.50;0.90;;;7.10;99.90;;;;;;4904207;29;20609;-90
2023/04/03 16:03:05;;;;;;;1.87;1.37;;;7.00;99.90;;;;;;4901627;29;20296;-90
2023/04/03 16:05:32;;;;;;;2.50;1.17;;;7.00;99.90;;;;;;4901633;29;20262;-91
2023/04/03 16:08:01;;;;;;;3.00;1.00;;;6.90;99.90;;;;;;4901433;29;20217;-90
2023/04/03 16:10:28;;;;;;;1.80;1.17;;;6.90;99.90;;;;;;4882927;29;20665;-91
2023/04/03 16:12:57;;;;;;;7.50;3.20;;;6.90;99.90;;;;;;4901713;29;20202;-91
2023/04/03 16:15:24;;;;;;;7.40;3.13;;;6.80;99.90;;;;;;4901410;29;20198;-90
2023/04/03 16:17:51;;;;;;;3.70;1.37;;;6.90;99.90;;;;;;4901011;29;20222;-91
2023/04/03 16:20:21;;;;;;;1.57;1.10;;;6.80;99.90;;;;;;4901748;29;20205;-94
2023/04/03 16:22:48;;;;;;;2.70;1.30;;;6.70;99.90;;;;;;4901565;29;20202;-91
2023/04/03 16:25:16;;;;;;;1.30;0.80;;;6.70;99.90;;;;;;4901518;29;20198;-92
2023/04/03 16:27:43;;;;;;;1.43;0.90;;;6.60;99.90;;;;;;4901340;29;20278;-91
2023/04/03 16:30:12;;;;;;;1.93;1.00;;;6.60;99.90;;;;;;4901836;29;20200;-93
2023/04/03 16:32:41;;;;;;;1.57;0.80;;;6.60;99.90;;;;;;4890810;29;20279;-92
2023/04/03 16:35:10;;;;;;;2.83;1.10;;;6.50;99.90;;;;;;4883526;29;20240;-92
2023/04/03 16:37:37;;;;;;;3.13;0.73;;;6.50;99.90;;;;;;4881995;29;20852;-90
2023/04/03 16:40:05;;;;;;;1.70;0.90;;;6.50;99.90;;;;;;4881359;29;20197;-91
2023/04/03 16:42:32;;;;;;;1.67;0.60;;;6.40;99.90;;;;;;4880563;29;20206;-90
2023/04/03 16:45:02;;;;;;;2.10;0.90;;;6.40;99.90;;;;;;4883023;29;20662;-91
2023/04/03 16:47:31;;;;;;;2.23;0.60;;;6.30;99.90;;;;;;4881882;29;20230;-91
2023/04/03 16:49:58;;;;;;;1.27;0.73;;;6.20;99.90;;;;;;4882001;29;20230;-91
2023/04/03 16:52:25;;;;;;;0.90;0.80;;;6.10;99.90;;;;;;4869030;29;20564;-91
2023/04/03 16:54:55;;;;;;;1.50;1.03;;;6.00;99.90;;;;;;4879900;29;20197;-91
2023/04/03 16:57:22;;;;;;;1.47;1.07;;;5.90;99.90;;;;;;4873784;29;20264;-91
2023/04/03 16:59:51;;;;;;;3.23;1.00;;;5.80;99.90;;;;;;4881274;29;20241;-90
2023/04/03 17:02:18;;;;;;;2.57;1.13;;;5.80;99.90;;;;;;4881904;29;20633;-89
2023/04/03 17:04:46;;;;;;;2.83;0.80;;;5.70;99.90;;;;;;4881415;29;20257;-90
2023/04/03 17:07:13;;;;;;;1.87;0.90;;;5.70;99.90;;;;;;4875997;29;20273;-90
2023/04/03 17:09:40;;;;;;;3.00;1.00;;;5.60;99.90;;;;;;4880903;29;20200;-90
2023/04/03 17:12:07;;;;;;;1.50;0.80;;;5.50;99.90;;;;;;4863183;29;20202;-91
2023/04/03 17:14:34;;;;;;;1.93;1.10;;;5.50;99.90;;;;;;4870723;29;20203;-91
2023/04/03 17:17:03;;;;;;;1.93;1.00;;;5.40;99.90;;;;;;4881569;29;20207;-91
2023/04/03 17:19:30;;;;;;;1.30;0.63;;;5.30;99.90;;;;;;4881367;29;20202;-91
2023/04/03 17:21:59;;;;;;;2.87;1.00;;;5.20;99.90;;;;;;4881615;29;20570;-91
2023/04/03 17:24:28;;;;;;;1.93;1.00;;;5.20;99.90;;;;;;4881500;29;20199;-91
2023/04/03 17:26:55;;;;;;;2.20;1.07;;;5.10;99.90;;;;;;4882103;29;20202;-90
2023/04/03 17:29:22;;;;;;;2.27;0.90;;;5.00;99.90;;;;;;4881797;29;20208;-90
2023/04/03 17:31:49;;;;;;;1.87;1.07;;;4.90;99.90;;;;;;4890800;29;20230;-90
2023/04/03 17:34:16;;;;;;;1.83;1.10;;;4.90;99.90;;;;;;4900452;29;20211;-91
2023/04/03 17:36:43;;;;;;;1.53;0.80;;;4.90;99.90;;;;;;4900139;29;20605;-91
2023/04/03 17:39:11;;;;;;;1.43;0.90;;;4.80;99.90;;;;;;4900095;29;20614;-90
2023/04/03 17:41:39;;;;;;;1.53;0.87;;;4.80;99.90;;;;;;4900097;29;20249;-90
2023/04/03 17:44:06;;;;;;;0.93;0.70;;;4.80;99.90;;;;;;4900347;29;20281;-91
2023/04/03 17:46:33;;;;;;;1.00;0.87;;;4.80;99.90;;;;;;4899954;29;20207;-90
2023/04/03 17:49:01;;;;;;;3.10;1.30;;;4.80;99.90;;;;;;4900040;29;20706;-91
2023/04/03 17:51:28;;;;;;;2.47;1.40;;;4.70;99.90;;;;;;4899770;29;20202;-91
2023/04/03 17:53:55;;;;;;;4.07;1.40;;;4.70;99.90;;;;;;4899870;29;20202;-91
2023/04/03 17:56:26;;;;;;;3.40;1.57;;;4.60;99.90;;;;;;4899785;29;20198;-90
2023/04/03 17:58:54;;;;;;;4.43;1.97;;;4.50;99.90;;;;;;4899905;29;20186;-91
2023/04/03 18:01:22;;;;;;;2.20;1.47;;;4.50;99.90;;;;;;4899648;29;20205;-90
2023/04/03 18:03:53;;;;;;;2.50;1.33;;;4.40;99.90;;;;;;4917370;29;20249;-89
2023/04/03 18:06:22;;;;;;;3.87;1.20;;;4.40;99.90;;;;;;4918248;29;20622;-90
2023/04/03 18:08:51;;;;;;;3.27;1.47;;;4.40;99.90;;;;;;4907767;29;20714;-89
2023/04/03 18:11:20;;;;;;;2.40;1.10;;;4.40;99.90;;;;;;4898467;29;20194;-90
2023/04/03 18:13:49;;;;;;;2.97;1.30;;;4.40;99.90;;;;;;4898675;29;20233;-90
2023/04/03 18:16:16;;;;;;;2.37;1.33;;;4.40;99.90;;;;;;4898716;29;20202;-89
2023/04/03 18:18:43;;;;;;;3.83;1.10;;;4.40;99.90;;;;;;4898403;29;20198;-88
2023/04/03 18:21:12;;;;;;;1.87;1.17;;;4.40;99.90;;;;;;4901117;29;20198;-89
2023/04/03 18:23:43;;;;;;;4.80;1.50;;;4.40;99.90;;;;;;4895546;29;20229;-89
2023/04/03 18:26:11;;;;;;;3.70;1.57;;;4.40;99.90;;;;;;4884202;29;20199;-88
2023/04/03 18:28:40;;;;;;;3.07;1.37;;;4.30;99.90;;;;;;4894386;29;20230;-88
2023/04/03 18:31:10;;;;;;;1.53;1.17;;;4.30;99.90;;;;;;4899251;29;20218;-88